Brittany, Louisiana
Current Conditions -  °F | °C
As of 12:35 PM on Sunday 23 Nov 2014 (Local Time) from KL38 Reporting Station
Overcast Overcast  
Wind Chill: 72°   Ceiling: 3500
Heat Index: 72°   Visibility: 10mi
Dew Point: 62°   Wind: 14mph
Humidity: 70%   Direction: 220°SW
Pressure: 29.65"   Gusts: 24mph
Location:  30.21°N, 90.88°W
Report Text: KL38 231835Z AUTO 22012G21KT 10SM BKN035 BKN043 OVC049 22/16 A2965 RMK AO2 T02200164
Loading
Personal Weather Stations






























Interactive Weather Map New forecast layout! Learn more

10-Day Weather Forecast

Advertisements
Track Severe Weather on mobile